sensor_id;sensor_type;location;lat;lon;timestamp;pressure;altitude;pressure_sealevel;temperature;humidity
70930;BME280;58588;48.102;19.682;2023-02-16T00:01:49;100784.19;;;-3.24;100.00
70930;BME280;58588;48.102;19.682;2023-02-16T00:04:51;100782.56;;;-3.27;100.00
70930;BME280;58588;48.102;19.682;2023-02-16T00:07:53;100785.63;;;-3.36;100.00
70930;BME280;58588;48.102;19.682;2023-02-16T00:10:57;100787.50;;;-3.39;100.00
70930;BME280;58588;48.102;19.682;2023-02-16T00:14:17;100785.72;;;-3.39;100.00
70930;BME280;58588;48.102;19.682;2023-02-16T00:17:22;100779.88;;;-3.45;100.00
70930;BME280;58588;48.102;19.682;2023-02-16T00:20:24;100785.66;;;-3.37;100.00
70930;BME280;58588;48.102;19.682;2023-02-16T00:23:26;100783.88;;;-3.37;100.00
70930;BME280;58588;48.102;19.682;2023-02-16T00:26:30;100792.19;;;-3.46;100.00
70930;BME280;58588;48.102;19.682;2023-02-16T00:29:36;100792.38;;;-3.51;100.00
70930;BME280;58588;48.102;19.682;2023-02-16T00:32:38;100785.59;;;-3.56;100.00
70930;BME280;58588;48.102;19.682;2023-02-16T00:35:40;100784.06;;;-3.62;100.00
70930;BME280;58588;48.102;19.682;2023-02-16T00:38:42;100772.94;;;-3.68;100.00
70930;BME280;58588;48.102;19.682;2023-02-16T00:41:46;100783.72;;;-3.74;100.00
70930;BME280;58588;48.102;19.682;2023-02-16T00:44:53;100778.97;;;-3.66;100.00
70930;BME280;58588;48.102;19.682;2023-02-16T00:47:55;100774.81;;;-3.72;100.00
70930;BME280;58588;48.102;19.682;2023-02-16T00:50:58;100773.78;;;-3.68;100.00
70930;BME280;58588;48.102;19.682;2023-02-16T00:54:00;100764.50;;;-3.77;100.00
70930;BME280;58588;48.102;19.682;2023-02-16T00:57:03;100767.84;;;-3.73;100.00
70930;BME280;58588;48.102;19.682;2023-02-16T01:00:10;100763.38;;;-3.71;100.00
70930;BME280;58588;48.102;19.682;2023-02-16T01:03:15;100760.34;;;-3.82;100.00
70930;BME280;58588;48.102;19.682;2023-02-16T01:06:18;100752.44;;;-3.82;100.00
70930;BME280;58588;48.102;19.682;2023-02-16T01:09:37;100756.19;;;-3.88;100.00
70930;BME280;58588;48.102;19.682;2023-02-16T01:12:58;100745.09;;;-3.96;100.00
70930;BME280;58588;48.102;19.682;2023-02-16T01:16:01;100742.22;;;-3.90;100.00
70930;BME280;58588;48.102;19.682;2023-02-16T01:19:04;100743.94;;;-3.89;100.00
70930;BME280;58588;48.102;19.682;2023-02-16T01:22:06;100739.44;;;-3.87;100.00
70930;BME280;58588;48.102;19.682;2023-02-16T01:25:08;100731.72;;;-3.91;100.00
70930;BME280;58588;48.102;19.682;2023-02-16T01:28:17;100725.69;;;-3.93;100.00
70930;BME280;58588;48.102;19.682;2023-02-16T01:31:20;100728.66;;;-4.01;100.00
70930;BME280;58588;48.102;19.682;2023-02-16T01:34:22;100728.44;;;-3.96;100.00
70930;BME280;58588;48.102;19.682;2023-02-16T01:37:39;100724.16;;;-3.99;100.00
70930;BME280;58588;48.102;19.682;2023-02-16T01:40:44;100724.41;;;-4.05;100.00
70930;BME280;58588;48.102;19.682;2023-02-16T01:43:55;100722.03;;;-4.11;100.00
70930;BME280;58588;48.102;19.682;2023-02-16T01:47:02;100723.81;;;-4.12;100.00
70930;BME280;58588;48.102;19.682;2023-02-16T01:50:17;100708.19;;;-4.16;100.00
70930;BME280;58588;48.102;19.682;2023-02-16T01:53:24;100720.75;;;-4.23;100.00
70930;BME280;58588;48.102;19.682;2023-02-16T01:56:32;100724.56;;;-4.30;100.00
70930;BME280;58588;48.102;19.682;2023-02-16T01:59:58;100715.59;;;-4.26;100.00
70930;BME280;58588;48.102;19.682;2023-02-16T02:03:08;100713.38;;;-4.15;100.00
70930;BME280;58588;48.102;19.682;2023-02-16T02:06:32;100714.13;;;-4.11;100.00
70930;BME280;58588;48.102;19.682;2023-02-16T02:09:39;100713.34;;;-4.13;100.00
70930;BME280;58588;48.102;19.682;2023-02-16T02:12:48;100705.56;;;-4.16;100.00
70930;BME280;58588;48.102;19.682;2023-02-16T02:15:54;100706.41;;;-4.16;100.00
70930;BME280;58588;48.102;19.682;2023-02-16T02:18:57;100705.63;;;-4.18;100.00
70930;BME280;58588;48.102;19.682;2023-02-16T02:22:29;100700.53;;;-4.22;100.00
70930;BME280;58588;48.102;19.682;2023-02-16T02:30:00;100691.38;;;-4.34;100.00
70930;BME280;58588;48.102;19.682;2023-02-16T02:36:36;100693.22;;;-4.36;100.00
70930;BME280;58588;48.102;19.682;2023-02-16T02:39:45;100690.28;;;-4.50;100.00
70930;BME280;58588;48.102;19.682;2023-02-16T02:42:57;100692.91;;;-4.50;100.00
70930;BME280;58588;48.102;19.682;2023-02-16T02:46:08;100695.66;;;-4.53;100.00
70930;BME280;58588;48.102;19.682;2023-02-16T02:49:11;100688.72;;;-4.56;100.00
70930;BME280;58588;48.102;19.682;2023-02-16T02:52:13;100688.72;;;-4.56;100.00
70930;BME280;58588;48.102;19.682;2023-02-16T02:55:16;100685.16;;;-4.53;100.00
70930;BME280;58588;48.102;19.682;2023-02-16T02:58:36;100693.03;;;-4.53;100.00
70930;BME280;58588;48.102;19.682;2023-02-16T03:01:59;100689.41;;;-4.51;100.00
70930;BME280;58588;48.102;19.682;2023-02-16T03:05:05;100688.25;;;-4.44;100.00
70930;BME280;58588;48.102;19.682;2023-02-16T03:08:11;100688.22;;;-4.42;100.00
70930;BME280;58588;48.102;19.682;2023-02-16T03:11:17;100693.47;;;-4.42;100.00
70930;BME280;58588;48.102;19.682;2023-02-16T03:14:41;100687.47;;;-4.46;100.00
70930;BME280;58588;48.102;19.682;2023-02-16T03:17:45;100692.47;;;-4.40;100.00
70930;BME280;58588;48.102;19.682;2023-02-16T03:21:05;100687.63;;;-4.28;100.00
70930;BME280;58588;48.102;19.682;2023-02-16T03:24:28;100684.69;;;-4.21;100.00
70930;BME280;58588;48.102;19.682;2023-02-16T03:27:49;100685.44;;;-4.17;100.00
70930;BME280;58588;48.102;19.682;2023-02-16T03:31:11;100687.06;;;-4.15;100.00
70930;BME280;58588;48.102;19.682;2023-02-16T03:34:17;100690.38;;;-4.10;100.00
70930;BME280;58588;48.102;19.682;2023-02-16T03:37:20;100691.81;;;-4.03;100.00
70930;BME280;58588;48.102;19.682;2023-02-16T03:40:24;100684.19;;;-4.09;100.00
70930;BME280;58588;48.102;19.682;2023-02-16T03:43:31;100683.13;;;-4.05;100.00
70930;BME280;58588;48.102;19.682;2023-02-16T03:46:33;100677.88;;;-4.05;100.00
70930;BME280;58588;48.102;19.682;2023-02-16T03:49:37;100679.91;;;-4.11;100.00
70930;BME280;58588;48.102;19.682;2023-02-16T03:52:39;100687.28;;;-4.19;100.00
70930;BME280;58588;48.102;19.682;2023-02-16T03:55:42;100682.97;;;-4.22;100.00
70930;BME280;58588;48.102;19.682;2023-02-16T03:58:45;100681.34;;;-4.24;100.00
70930;BME280;58588;48.102;19.682;2023-02-16T04:01:47;100681.53;;;-4.29;100.00
70930;BME280;58588;48.102;19.682;2023-02-16T04:04:50;100679.81;;;-4.30;100.00
70930;BME280;58588;48.102;19.682;2023-02-16T04:07:55;100688.38;;;-4.25;100.00
70930;BME280;58588;48.102;19.682;2023-02-16T04:10:58;100687.56;;;-4.27;100.00
70930;BME280;58588;48.102;19.682;2023-02-16T04:14:00;100692.78;;;-4.25;100.00
70930;BME280;58588;48.102;19.682;2023-02-16T04:17:01;100687.28;;;-4.19;100.00
70930;BME280;58588;48.102;19.682;2023-02-16T04:20:07;100688.81;;;-4.14;100.00
70930;BME280;58588;48.102;19.682;2023-02-16T04:23:09;100687.66;;;-4.08;100.00
70930;BME280;58588;48.102;19.682;2023-02-16T04:26:11;100683.06;;;-4.03;100.00
70930;BME280;58588;48.102;19.682;2023-02-16T04:29:13;100689.00;;;-3.98;100.00
70930;BME280;58588;48.102;19.682;2023-02-16T04:32:15;100695.69;;;-3.89;100.00
70930;BME280;58588;48.102;19.682;2023-02-16T04:35:19;100681.25;;;-3.81;100.00
70930;BME280;58588;48.102;19.682;2023-02-16T04:38:21;100685.25;;;-3.72;100.00
70930;BME280;58588;48.102;19.682;2023-02-16T04:41:23;100685.59;;;-3.59;100.00
70930;BME280;58588;48.102;19.682;2023-02-16T04:44:26;100687.69;;;-3.67;100.00
70930;BME280;58588;48.102;19.682;2023-02-16T04:47:28;100687.19;;;-3.75;100.00
70930;BME280;58588;48.102;19.682;2023-02-16T04:50:31;100686.84;;;-3.68;100.00
70930;BME280;58588;48.102;19.682;2023-02-16T04:53:33;100692.78;;;-3.63;100.00
70930;BME280;58588;48.102;19.682;2023-02-16T04:56:36;100677.16;;;-3.67;100.00
70930;BME280;58588;48.102;19.682;2023-02-16T04:59:38;100674.00;;;-3.75;100.00
70930;BME280;58588;48.102;19.682;2023-02-16T05:02:40;100677.50;;;-3.75;100.00
70930;BME280;58588;48.102;19.682;2023-02-16T05:05:43;100679.06;;;-3.91;100.00
70930;BME280;58588;48.102;19.682;2023-02-16T05:08:45;100672.88;;;-3.90;100.00
70930;BME280;58588;48.102;19.682;2023-02-16T05:11:47;100678.69;;;-3.82;100.00
70930;BME280;58588;48.102;19.682;2023-02-16T05:15:07;100678.69;;;-3.82;100.00
70930;BME280;58588;48.102;19.682;2023-02-16T05:18:09;100678.22;;;-3.71;100.00
70930;BME280;58588;48.102;19.682;2023-02-16T05:21:13;100675.44;;;-3.68;100.00
70930;BME280;58588;48.102;19.682;2023-02-16T05:24:35;100672.81;;;-3.68;100.00
70930;BME280;58588;48.102;19.682;2023-02-16T05:27:37;100672.28;;;-3.56;100.00
70930;BME280;58588;48.102;19.682;2023-02-16T05:30:39;100675.50;;;-3.50;100.00
70930;BME280;58588;48.102;19.682;2023-02-16T05:33:41;100677.09;;;-3.45;100.00
70930;BME280;58588;48.102;19.682;2023-02-16T05:36:44;100677.16;;;-3.47;100.00
70930;BME280;58588;48.102;19.682;2023-02-16T05:39:46;100676.03;;;-3.41;100.00
70930;BME280;58588;48.102;19.682;2023-02-16T05:42:51;100676.94;;;-3.42;100.00
70930;BME280;58588;48.102;19.682;2023-02-16T05:45:53;100681.69;;;-3.51;100.00
70930;BME280;58588;48.102;19.682;2023-02-16T05:48:56;100688.19;;;-3.39;100.00
70930;BME280;58588;48.102;19.682;2023-02-16T05:51:59;100690.72;;;-3.36;100.00
70930;BME280;58588;48.102;19.682;2023-02-16T05:55:01;100694.34;;;-3.19;100.00
70930;BME280;58588;48.102;19.682;2023-02-16T05:58:03;100688.22;;;-3.20;100.00
70930;BME280;58588;48.102;19.682;2023-02-16T06:01:05;100695.38;;;-3.22;100.00
70930;BME280;58588;48.102;19.682;2023-02-16T06:04:08;100689.72;;;-3.14;100.00
70930;BME280;58588;48.102;19.682;2023-02-16T06:07:12;100700.38;;;-3.16;100.00
70930;BME280;58588;48.102;19.682;2023-02-16T06:10:14;100699.50;;;-3.16;100.00
70930;BME280;58588;48.102;19.682;2023-02-16T06:13:16;100697.66;;;-3.14;100.00
70930;BME280;58588;48.102;19.682;2023-02-16T06:16:19;100693.69;;;-3.25;100.00
70930;BME280;58588;48.102;19.682;2023-02-16T06:19:21;100708.84;;;-3.09;100.00
70930;BME280;58588;48.102;19.682;2023-02-16T06:22:24;100698.03;;;-3.03;100.00
70930;BME280;58588;48.102;19.682;2023-02-16T06:25:26;100702.28;;;-3.19;100.00
70930;BME280;58588;48.102;19.682;2023-02-16T06:28:28;100699.50;;;-3.16;100.00
70930;BME280;58588;48.102;19.682;2023-02-16T06:31:31;100704.13;;;-3.21;100.00
70930;BME280;58588;48.102;19.682;2023-02-16T06:34:33;100691.41;;;-3.12;100.00
70930;BME280;58588;48.102;19.682;2023-02-16T06:37:36;100694.34;;;-3.19;100.00
70930;BME280;58588;48.102;19.682;2023-02-16T06:40:38;100697.28;;;-3.26;100.00
70930;BME280;58588;48.102;19.682;2023-02-16T06:43:40;100692.16;;;-3.29;100.00
70930;BME280;58588;48.102;19.682;2023-02-16T06:46:44;100695.56;;;-3.27;100.00
70930;BME280;58588;48.102;19.682;2023-02-16T06:49:46;100696.59;;;-3.10;100.00
70930;BME280;58588;48.102;19.682;2023-02-16T06:52:50;100691.69;;;-2.99;100.00
70930;BME280;58588;48.102;19.682;2023-02-16T06:55:52;100691.41;;;-2.74;100.00
70930;BME280;58588;48.102;19.682;2023-02-16T06:58:54;100688.94;;;-2.60;100.00
70930;BME280;58588;48.102;19.682;2023-02-16T07:01:56;100684.75;;;-2.64;100.00
70930;BME280;58588;48.102;19.682;2023-02-16T07:04:58;100678.53;;;-2.44;100.00
70930;BME280;58588;48.102;19.682;2023-02-16T07:08:02;100680.94;;;-2.39;100.00
70930;BME280;58588;48.102;19.682;2023-02-16T07:11:04;100673.88;;;-2.39;100.00
70930;BME280;58588;48.102;19.682;2023-02-16T07:14:07;100674.47;;;-2.15;100.00
70930;BME280;58588;48.102;19.682;2023-02-16T07:17:09;100676.19;;;-1.97;100.00
70930;BME280;58588;48.102;19.682;2023-02-16T07:20:11;100670.81;;;-1.95;100.00
70930;BME280;58588;48.102;19.682;2023-02-16T07:23:15;100661.31;;;-1.99;100.00
70930;BME280;58588;48.102;19.682;2023-02-16T07:26:17;100665.94;;;-1.85;100.00
70930;BME280;58588;48.102;19.682;2023-02-16T07:29:19;100660.59;;;-1.68;100.00
70930;BME280;58588;48.102;19.682;2023-02-16T07:32:21;100660.59;;;-1.51;100.00
70930;BME280;58588;48.102;19.682;2023-02-16T07:35:23;100656.78;;;-1.63;100.00
70930;BME280;58588;48.102;19.682;2023-02-16T07:38:27;100650.09;;;-1.52;100.00
70930;BME280;58588;48.102;19.682;2023-02-16T07:41:30;100659.13;;;-1.23;100.00
70930;BME280;58588;48.102;19.682;2023-02-16T07:44:32;100658.28;;;-1.08;100.00
70930;BME280;58588;48.102;19.682;2023-02-16T07:47:34;100646.97;;;-0.94;100.00
70930;BME280;58588;48.102;19.682;2023-02-16T07:50:36;100650.75;;;-0.83;100.00
70930;BME280;58588;48.102;19.682;2023-02-16T07:53:40;100639.03;;;-0.78;100.00
70930;BME280;58588;48.102;19.682;2023-02-16T07:56:42;100649.81;;;-0.66;100.00
70930;BME280;58588;48.102;19.682;2023-02-16T07:59:44;100642.28;;;-0.42;100.00
70930;BME280;58588;48.102;19.682;2023-02-16T08:02:47;100636.97;;;-0.42;100.00
70930;BME280;58588;48.102;19.682;2023-02-16T08:05:51;100637.38;;;-0.34;100.00
70930;BME280;58588;48.102;19.682;2023-02-16T08:08:57;100644.03;;;-0.27;100.00
70930;BME280;58588;48.102;19.682;2023-02-16T08:11:59;100648.69;;;0.00;100.00
70930;BME280;58588;48.102;19.682;2023-02-16T08:15:02;100652.31;;;0.13;100.00
70930;BME280;58588;48.102;19.682;2023-02-16T08:18:06;100649.81;;;0.10;100.00
70930;BME280;58588;48.102;19.682;2023-02-16T08:21:16;100641.03;;;0.10;100.00
70930;BME280;58588;48.102;19.682;2023-02-16T08:24:20;100637.75;;;0.35;100.00
70930;BME280;58588;48.102;19.682;2023-02-16T08:27:38;100656.88;;;0.25;100.00
70930;BME280;58588;48.102;19.682;2023-02-16T08:30:41;100654.59;;;0.34;100.00
70930;BME280;58588;48.102;19.682;2023-02-16T08:33:44;100659.97;;;0.62;100.00
70930;BME280;58588;48.102;19.682;2023-02-16T08:36:51;100661.66;;;0.77;100.00
70930;BME280;58588;48.102;19.682;2023-02-16T08:39:57;100659.88;;;0.92;100.00
70930;BME280;58588;48.102;19.682;2023-02-16T08:43:00;100659.56;;;0.83;100.00
70930;BME280;58588;48.102;19.682;2023-02-16T08:46:02;100669.16;;;0.85;100.00
70930;BME280;58588;48.102;19.682;2023-02-16T08:49:08;100664.50;;;1.03;100.00
70930;BME280;58588;48.102;19.682;2023-02-16T08:52:10;100664.38;;;1.19;100.00
70930;BME280;58588;48.102;19.682;2023-02-16T08:55:19;100666.72;;;1.38;100.00
70930;BME280;58588;48.102;19.682;2023-02-16T08:58:22;100663.06;;;1.53;100.00
70930;BME280;58588;48.102;19.682;2023-02-16T09:01:25;100660.47;;;1.66;100.00
70930;BME280;58588;48.102;19.682;2023-02-16T09:04:28;100668.72;;;1.61;100.00
70930;BME280;58588;48.102;19.682;2023-02-16T09:07:30;100660.72;;;1.75;100.00
70930;BME280;58588;48.102;19.682;2023-02-16T09:10:35;100659.56;;;1.79;100.00
70930;BME280;58588;48.102;19.682;2023-02-16T09:13:38;100659.91;;;1.60;100.00
70930;BME280;58588;48.102;19.682;2023-02-16T09:16:41;100645.81;;;2.00;100.00
70930;BME280;58588;48.102;19.682;2023-02-16T09:19:45;100644.31;;;2.08;100.00
70930;BME280;58588;48.102;19.682;2023-02-16T09:26:19;100634.47;;;2.36;100.00
70930;BME280;58588;48.102;19.682;2023-02-16T09:29:22;100640.09;;;2.69;100.00
70930;BME280;58588;48.102;19.682;2023-02-16T09:32:27;100639.88;;;2.98;100.00
70930;BME280;58588;48.102;19.682;2023-02-16T09:35:29;100637.59;;;3.17;100.00
70930;BME280;58588;48.102;19.682;2023-02-16T09:38:32;100632.53;;;3.38;100.00
70930;BME280;58588;48.102;19.682;2023-02-16T09:41:47;100635.66;;;3.56;100.00
70930;BME280;58588;48.102;19.682;2023-02-16T09:44:59;100628.13;;;3.74;100.00
70930;BME280;58588;48.102;19.682;2023-02-16T09:48:03;100632.25;;;4.02;100.00
70930;BME280;58588;48.102;19.682;2023-02-16T09:51:06;100630.44;;;4.02;100.00
70930;BME280;58588;48.102;19.682;2023-02-16T09:54:21;100641.09;;;4.60;100.00
70930;BME280;58588;48.102;19.682;2023-02-16T09:57:52;100629.56;;;5.16;100.00
70930;BME280;58588;48.102;19.682;2023-02-16T10:01:01;100623.69;;;5.55;100.00
70930;BME280;58588;48.102;19.682;2023-02-16T10:04:46;100623.69;;;5.44;100.00
70930;BME280;58588;48.102;19.682;2023-02-16T10:07:58;100620.19;;;5.32;100.00
70930;BME280;58588;48.102;19.682;2023-02-16T10:11:09;100631.59;;;5.46;100.00
70930;BME280;58588;48.102;19.682;2023-02-16T10:18:34;100600.34;;;5.89;100.00
70930;BME280;58588;48.102;19.682;2023-02-16T10:25:44;100603.16;;;5.88;100.00
70930;BME280;58588;48.102;19.682;2023-02-16T10:29:07;100597.50;;;6.23;100.00
70930;BME280;58588;48.102;19.682;2023-02-16T10:32:23;100599.31;;;6.23;100.00
70930;BME280;58588;48.102;19.682;2023-02-16T10:35:47;100593.91;;;6.34;100.00
70930;BME280;58588;48.102;19.682;2023-02-16T10:39:08;100596.13;;;6.29;100.00
70930;BME280;58588;48.102;19.682;2023-02-16T10:42:24;100601.31;;;6.21;100.00
70930;BME280;58588;48.102;19.682;2023-02-16T10:45:34;100583.88;;;6.26;100.00
70930;BME280;58588;48.102;19.682;2023-02-16T10:52:47;100565.47;;;7.13;100.00
70930;BME280;58588;48.102;19.682;2023-02-16T10:55:55;100567.41;;;7.51;100.00
70930;BME280;58588;48.102;19.682;2023-02-16T10:58:58;100555.81;;;7.70;98.17
70930;BME280;58588;48.102;19.682;2023-02-16T11:02:16;100559.19;;;8.11;100.00
70930;BME280;58588;48.102;19.682;2023-02-16T11:05:29;100556.75;;;8.37;92.14
70930;BME280;58588;48.102;19.682;2023-02-16T11:08:46;100548.81;;;8.45;89.77
70930;BME280;58588;48.102;19.682;2023-02-16T11:11:49;100551.97;;;8.68;90.63
70930;BME280;58588;48.102;19.682;2023-02-16T11:14:53;100551.09;;;8.30;89.76
70930;BME280;58588;48.102;19.682;2023-02-16T11:17:58;100549.78;;;8.54;90.48
70930;BME280;58588;48.102;19.682;2023-02-16T11:21:05;100545.16;;;8.46;89.28
70930;BME280;58588;48.102;19.682;2023-02-16T11:24:26;100547.41;;;8.78;89.00
70930;BME280;58588;48.102;19.682;2023-02-16T11:27:28;100546.53;;;8.88;84.97
70930;BME280;58588;48.102;19.682;2023-02-16T11:30:35;100537.41;;;8.71;84.26
70930;BME280;58588;48.102;19.682;2023-02-16T11:33:37;100530.09;;;9.18;85.59
70930;BME280;58588;48.102;19.682;2023-02-16T11:36:43;100528.38;;;9.17;84.33
70930;BME280;58588;48.102;19.682;2023-02-16T11:39:52;100522.78;;;9.28;85.28
70930;BME280;58588;48.102;19.682;2023-02-16T11:42:56;100533.56;;;9.46;81.80
70930;BME280;58588;48.102;19.682;2023-02-16T11:46:01;100528.88;;;8.75;81.43
70930;BME280;58588;48.102;19.682;2023-02-16T11:49:20;100518.94;;;8.85;84.31
70930;BME280;58588;48.102;19.682;2023-02-16T11:52:26;100523.81;;;8.72;83.03
70930;BME280;58588;48.102;19.682;2023-02-16T11:55:31;100518.78;;;9.15;83.99
70930;BME280;58588;48.102;19.682;2023-02-16T11:58:33;100507.69;;;9.00;82.36
70930;BME280;58588;48.102;19.682;2023-02-16T12:01:58;100491.66;;;9.26;82.35
70930;BME280;58588;48.102;19.682;2023-02-16T12:05:14;100489.34;;;9.31;82.29
70930;BME280;58588;48.102;19.682;2023-02-16T12:08:29;100490.03;;;9.15;81.39
70930;BME280;58588;48.102;19.682;2023-02-16T12:11:44;100478.72;;;9.29;79.70
70930;BME280;58588;48.102;19.682;2023-02-16T12:14:57;100471.44;;;9.22;81.20
70930;BME280;58588;48.102;19.682;2023-02-16T12:18:23;100463.81;;;9.35;79.71
70930;BME280;58588;48.102;19.682;2023-02-16T12:21:31;100467.19;;;9.55;78.10
70930;BME280;58588;48.102;19.682;2023-02-16T12:24:49;100457.94;;;9.75;78.38
70930;BME280;58588;48.102;19.682;2023-02-16T12:28:04;100457.66;;;9.60;77.88
70930;BME280;58588;48.102;19.682;2023-02-16T12:32:19;100449.75;;;10.11;77.91
70930;BME280;58588;48.102;19.682;2023-02-16T12:35:29;100449.50;;;10.22;74.52
70930;BME280;58588;48.102;19.682;2023-02-16T12:38:45;100442.59;;;10.19;75.55
70930;BME280;58588;48.102;19.682;2023-02-16T12:41:57;100444.13;;;9.96;74.43
70930;BME280;58588;48.102;19.682;2023-02-16T12:45:08;100433.28;;;10.14;74.18
70930;BME280;58588;48.102;19.682;2023-02-16T12:48:22;100438.25;;;10.01;73.51
70930;BME280;58588;48.102;19.682;2023-02-16T12:51:32;100421.50;;;10.15;73.47
70930;BME280;58588;48.102;19.682;2023-02-16T12:54:39;100417.94;;;10.40;72.52
70930;BME280;58588;48.102;19.682;2023-02-16T12:57:49;100420.00;;;10.47;72.51
70930;BME280;58588;48.102;19.682;2023-02-16T13:00:55;100407.91;;;10.25;71.15
70930;BME280;58588;48.102;19.682;2023-02-16T13:04:05;100413.03;;;10.36;71.81
70930;BME280;58588;48.102;19.682;2023-02-16T13:07:12;100391.34;;;10.45;68.98
70930;BME280;58588;48.102;19.682;2023-02-16T13:10:22;100392.88;;;10.14;70.07
70930;BME280;58588;48.102;19.682;2023-02-16T13:13:26;100396.16;;;9.74;71.25
70930;BME280;58588;48.102;19.682;2023-02-16T13:16:36;100382.81;;;9.90;70.94
70930;BME280;58588;48.102;19.682;2023-02-16T13:19:42;100392.66;;;9.81;70.97
70930;BME280;58588;48.102;19.682;2023-02-16T13:23:14;100374.25;;;10.29;71.01
70930;BME280;58588;48.102;19.682;2023-02-16T13:26:34;100376.31;;;10.35;70.81
70930;BME280;58588;48.102;19.682;2023-02-16T13:29:51;100366.06;;;10.12;69.52
70930;BME280;58588;48.102;19.682;2023-02-16T13:33:08;100367.25;;;10.10;69.10
70930;BME280;58588;48.102;19.682;2023-02-16T13:36:33;100367.97;;;10.20;70.85
70930;BME280;58588;48.102;19.682;2023-02-16T13:39:59;100369.19;;;9.91;70.02
70930;BME280;58588;48.102;19.682;2023-02-16T13:43:25;100366.25;;;10.19;69.49
70930;BME280;58588;48.102;19.682;2023-02-16T13:46:32;100360.56;;;10.56;70.28
70930;BME280;58588;48.102;19.682;2023-02-16T13:49:38;100357.16;;;10.12;70.26
70930;BME280;58588;48.102;19.682;2023-02-16T13:52:42;100356.97;;;10.39;69.46
70930;BME280;58588;48.102;19.682;2023-02-16T13:55:46;100360.66;;;10.38;69.29
70930;BME280;58588;48.102;19.682;2023-02-16T13:58:52;100354.22;;;10.31;69.09
70930;BME280;58588;48.102;19.682;2023-02-16T14:01:55;100355.47;;;10.53;69.03
70930;BME280;58588;48.102;19.682;2023-02-16T14:05:09;100348.00;;;10.97;68.52
70930;BME280;58588;48.102;19.682;2023-02-16T14:08:22;100351.16;;;10.77;67.90
70930;BME280;58588;48.102;19.682;2023-02-16T14:11:26;100348.63;;;10.83;68.25
70930;BME280;58588;48.102;19.682;2023-02-16T14:14:31;100347.25;;;10.71;67.96
70930;BME280;58588;48.102;19.682;2023-02-16T14:17:35;100352.66;;;10.63;68.59
70930;BME280;58588;48.102;19.682;2023-02-16T14:20:38;100350.00;;;10.29;69.69
70930;BME280;58588;48.102;19.682;2023-02-16T14:23:41;100347.31;;;10.29;68.26
70930;BME280;58588;48.102;19.682;2023-02-16T14:27:05;100350.25;;;10.43;69.29
70930;BME280;58588;48.102;19.682;2023-02-16T14:30:16;100349.78;;;10.72;69.19
70930;BME280;58588;48.102;19.682;2023-02-16T14:33:23;100344.91;;;10.76;69.27
70930;BME280;58588;48.102;19.682;2023-02-16T14:37:08;100342.38;;;10.91;68.76
70930;BME280;58588;48.102;19.682;2023-02-16T14:40:15;100339.34;;;10.78;68.74
70930;BME280;58588;48.102;19.682;2023-02-16T14:43:25;100342.75;;;10.96;68.71
70930;BME280;58588;48.102;19.682;2023-02-16T14:46:41;100341.34;;;10.59;69.26
70930;BME280;58588;48.102;19.682;2023-02-16T14:50:00;100338.56;;;10.35;70.36
70930;BME280;58588;48.102;19.682;2023-02-16T14:53:43;100335.16;;;10.25;69.97
70930;BME280;58588;48.102;19.682;2023-02-16T14:56:56;100342.72;;;10.21;70.10
70930;BME280;58588;48.102;19.682;2023-02-16T15:00:23;100332.50;;;9.64;71.47
70930;BME280;58588;48.102;19.682;2023-02-16T15:03:39;100328.72;;;9.49;71.31
70930;BME280;58588;48.102;19.682;2023-02-16T15:06:43;100325.91;;;9.33;71.74
70930;BME280;58588;48.102;19.682;2023-02-16T15:09:49;100335.31;;;9.55;71.36
70930;BME280;58588;48.102;19.682;2023-02-16T15:12:59;100327.50;;;9.44;70.37
70930;BME280;58588;48.102;19.682;2023-02-16T15:16:03;100323.78;;;9.19;71.19
70930;BME280;58588;48.102;19.682;2023-02-16T15:19:10;100322.66;;;9.03;72.09
70930;BME280;58588;48.102;19.682;2023-02-16T15:22:18;100322.25;;;9.16;72.38
70930;BME280;58588;48.102;19.682;2023-02-16T15:25:26;100325.94;;;8.97;73.35
70930;BME280;58588;48.102;19.682;2023-02-16T15:28:30;100322.88;;;8.56;74.96
70930;BME280;58588;48.102;19.682;2023-02-16T15:31:34;100322.66;;;8.22;77.15
70930;BME280;58588;48.102;19.682;2023-02-16T15:34:36;100326.00;;;8.34;77.66
70930;BME280;58588;48.102;19.682;2023-02-16T15:37:40;100325.56;;;8.11;78.67
70930;BME280;58588;48.102;19.682;2023-02-16T15:40:44;100329.66;;;7.78;80.82
70930;BME280;58588;48.102;19.682;2023-02-16T15:43:47;100326.56;;;7.73;82.13
70930;BME280;58588;48.102;19.682;2023-02-16T15:46:49;100328.28;;;7.64;82.37
70930;BME280;58588;48.102;19.682;2023-02-16T15:49:52;100333.09;;;7.61;82.79
70930;BME280;58588;48.102;19.682;2023-02-16T15:52:54;100333.00;;;7.43;84.01
70930;BME280;58588;48.102;19.682;2023-02-16T15:55:58;100331.06;;;7.25;83.79
70930;BME280;58588;48.102;19.682;2023-02-16T15:59:20;100324.34;;;6.92;87.48
70930;BME280;58588;48.102;19.682;2023-02-16T16:02:25;100323.19;;;6.47;92.68
70930;BME280;58588;48.102;19.682;2023-02-16T16:05:33;100328.94;;;6.32;96.20
70930;BME280;58588;48.102;19.682;2023-02-16T16:08:42;100329.03;;;6.02;100.00
70930;BME280;58588;48.102;19.682;2023-02-16T16:11:48;100324.91;;;5.98;100.00
70930;BME280;58588;48.102;19.682;2023-02-16T16:14:54;100331.91;;;5.89;100.00
70930;BME280;58588;48.102;19.682;2023-02-16T16:17:57;100328.34;;;5.79;100.00
70930;BME280;58588;48.102;19.682;2023-02-16T16:21:00;100334.06;;;5.74;100.00
70930;BME280;58588;48.102;19.682;2023-02-16T16:24:04;100323.16;;;5.56;100.00
70930;BME280;58588;48.102;19.682;2023-02-16T16:27:10;100330.22;;;5.36;100.00
70930;BME280;58588;48.102;19.682;2023-02-16T16:30:25;100332.84;;;5.27;100.00